Terminal Aerodrome Forecast
Issued by NWS Twin Cities, MN

Home | Current Version | Previous Version | Text Only | Print | Product List | Glossary On
Versions: 1 2 3 4 5 6 7 8 9 10 11 12 13 14 15 16
485
FTUS43 KMPX 231123
TAFSTC
TAF
KSTC 231123Z 2312/2412 VRB04KT P6SM SCT250
      TEMPO 2312/2313 3SM BR
     FM231600 18007KT P6SM SCT040 BKN090=

USA.gov is the U.S. government's official web portal to all federal, state and local government web resources and services.